This is the latest recevied weather packets stored in our database for station/object Dunnningn. If no packets are shown the sender has not sent any weather packets the latest 10 day(s).
| Time | Temp. | Humidity | Pressure | Rain* | Wind** | Luminosity | Snow |
|---|---|---|---|---|---|---|---|
| 1777377730 | 20.56° C | 35% | 1016 hPa | 0 mm | - | - | - |
| 1777375931 | 19.44° C | 36% | 1016.1 hPa | 0 mm | - | - | - |
| 1777374130 | 19.44° C | 38% | 1016.3 hPa | 0 mm | - | - | - |
| 1777372331 | 18.89° C | 42% | 1016.3 hPa | 0 mm | - | - | - |
| 1777370531 | 17.78° C | 45% | 1016.5 hPa | 0 mm | - | - | - |
| 1777368731 | 17.22° C | 45% | 1016.5 hPa | 0 mm | - | - | - |
| 1777366931 | 16.67° C | 47% | 1016.6 hPa | 0 mm | - | - | - |
| 1777365132 | 15° C | 49% | 1016.6 hPa | 0 mm | - | - | - |
| 1777363331 | 14.44° C | 50% | 1016.5 hPa | 0 mm | - | - | - |
| 1777361536 | 13.33° C | 49% | 1016.5 hPa | 0 mm | - | - | - |
| 1777359732 | 12.78° C | 55% | 1016.6 hPa | 0 mm | - | - | - |
| 1777357931 | 6.67° C | 77% | 1016.8 hPa | 0 mm | - | - | - |
| 1777356133 | 5° C | 81% | 1016.8 hPa | 0 mm | - | - | - |
| 1777354331 | 3.89° C | 82% | 1016.7 hPa | 0 mm | - | - | - |
| 1777352531 | 3.89° C | 81% | 1016.6 hPa | 0 mm | - | - | - |
| 1777350732 | 4.44° C | 80% | 1016.2 hPa | 0 mm | - | - | - |
| 1777348932 | 4.44° C | 80% | 1016.3 hPa | 0 mm | - | - | - |
| 1777347133 | 4.44° C | 79% | 1016.5 hPa | 0 mm | - | - | - |
| 1777345331 | 5° C | 78% | 1016.8 hPa | 0 mm | - | - | - |
| 1777343532 | 5° C | 78% | 1016.9 hPa | 0 mm | - | - | - |
| 1777341732 | 5° C | 77% | 1017 hPa | 0 mm | - | - | - |
| 1777339933 | 5.56° C | 75% | 1017.3 hPa | 0 mm | - | - | - |
| 1777338131 | 6.11° C | 74% | 1017.3 hPa | 0 mm | - | - | - |
| 1777336329 | 6.67° C | 73% | 1017.5 hPa | 0 mm | - | - | - |
| 1777334529 | 6.67° C | 71% | 1017.7 hPa | 0 mm | - | - | - |
* Rain since midnight (hover to see other rain measurements)
** Current wind speed in m/s (hover to see current wind gust speed)